Mc Dougal, Arkansas
Current Conditions -  °F | °C
As of 3:15 AM on Thursday 18 Dec 2014 (Local Time) from K4M9 Reporting Station
Overcast Overcast  
Wind Chill:   Ceiling: 3300
Heat Index:   Visibility: 7mi
Dew Point:   Wind: 5mph
Humidity: 100%   Direction: 120°ESE
Pressure: 30.27"   Gusts: NA
Location:  36.4376°N, 90.3867°W
Report Text: K4M9 180915Z AUTO 12004KT 7SM SCT013 OVC033 02/02 A3027 RMK AO2
Loading
Personal Weather Stations






























Interactive Weather Map New forecast layout! Learn more

10-Day Weather Forecast

Advertisements
Track Severe Weather on mobile